sensor_id;sensor_type;location;lat;lon;timestamp;temperature;humidity
3086;DHT22;52812;48.960;9.108;2022-12-24T00:00:55;11.90;99.90
3086;DHT22;52812;48.960;9.108;2022-12-24T00:03:21;11.80;99.90
3086;DHT22;52812;48.960;9.108;2022-12-24T00:05:47;11.80;99.90
3086;DHT22;52812;48.960;9.108;2022-12-24T00:08:12;11.90;99.90
3086;DHT22;52812;48.960;9.108;2022-12-24T00:10:38;12.00;99.90
3086;DHT22;52812;48.960;9.108;2022-12-24T00:13:03;12.00;99.90
3086;DHT22;52812;48.960;9.108;2022-12-24T00:15:29;12.00;99.90
3086;DHT22;52812;48.960;9.108;2022-12-24T00:17:54;12.10;99.90
3086;DHT22;52812;48.960;9.108;2022-12-24T00:20:20;12.00;99.90
3086;DHT22;52812;48.960;9.108;2022-12-24T00:22:45;11.80;99.90
3086;DHT22;52812;48.960;9.108;2022-12-24T00:25:11;11.80;99.90
3086;DHT22;52812;48.960;9.108;2022-12-24T00:27:36;11.70;99.90
3086;DHT22;52812;48.960;9.108;2022-12-24T00:30:02;11.70;99.90
3086;DHT22;52812;48.960;9.108;2022-12-24T00:32:28;11.60;99.90
3086;DHT22;52812;48.960;9.108;2022-12-24T00:34:53;11.50;99.90
3086;DHT22;52812;48.960;9.108;2022-12-24T00:37:19;11.50;99.90
3086;DHT22;52812;48.960;9.108;2022-12-24T00:39:44;11.40;99.90
3086;DHT22;52812;48.960;9.108;2022-12-24T00:42:10;11.40;99.90
3086;DHT22;52812;48.960;9.108;2022-12-24T00:44:36;11.30;99.90
3086;DHT22;52812;48.960;9.108;2022-12-24T00:47:01;11.30;99.90
3086;DHT22;52812;48.960;9.108;2022-12-24T00:49:27;11.30;99.90
3086;DHT22;52812;48.960;9.108;2022-12-24T00:51:52;11.30;99.90
3086;DHT22;52812;48.960;9.108;2022-12-24T00:54:18;11.30;99.90
3086;DHT22;52812;48.960;9.108;2022-12-24T00:56:43;11.30;99.90
3086;DHT22;52812;48.960;9.108;2022-12-24T00:59:09;11.30;99.90
3086;DHT22;52812;48.960;9.108;2022-12-24T01:01:34;11.40;99.90
3086;DHT22;52812;48.960;9.108;2022-12-24T01:04:01;11.30;99.90
3086;DHT22;52812;48.960;9.108;2022-12-24T01:06:45;11.30;99.90
3086;DHT22;52812;48.960;9.108;2022-12-24T01:09:10;11.20;99.90
3086;DHT22;52812;48.960;9.108;2022-12-24T01:11:36;11.20;99.90
3086;DHT22;52812;48.960;9.108;2022-12-24T01:14:01;11.20;99.90
3086;DHT22;52812;48.960;9.108;2022-12-24T01:16:27;11.10;99.90
3086;DHT22;52812;48.960;9.108;2022-12-24T01:18:53;11.10;99.90
3086;DHT22;52812;48.960;9.108;2022-12-24T01:21:19;11.00;99.90
3086;DHT22;52812;48.960;9.108;2022-12-24T01:23:44;11.00;99.90
3086;DHT22;52812;48.960;9.108;2022-12-24T01:26:10;11.00;99.90
3086;DHT22;52812;48.960;9.108;2022-12-24T01:28:36;11.00;99.90
3086;DHT22;52812;48.960;9.108;2022-12-24T01:31:02;10.80;99.90
3086;DHT22;52812;48.960;9.108;2022-12-24T01:33:28;10.80;99.90
3086;DHT22;52812;48.960;9.108;2022-12-24T01:35:54;10.70;99.90
3086;DHT22;52812;48.960;9.108;2022-12-24T01:38:19;10.60;99.90
3086;DHT22;52812;48.960;9.108;2022-12-24T01:40:45;10.50;99.90
3086;DHT22;52812;48.960;9.108;2022-12-24T01:43:31;10.40;99.90
3086;DHT22;52812;48.960;9.108;2022-12-24T01:46:06;10.40;99.90
3086;DHT22;52812;48.960;9.108;2022-12-24T01:48:38;10.40;99.90
3086;DHT22;52812;48.960;9.108;2022-12-24T01:51:17;10.30;99.90
3086;DHT22;52812;48.960;9.108;2022-12-24T01:53:48;10.20;99.90
3086;DHT22;52812;48.960;9.108;2022-12-24T01:56:17;10.10;99.90
3086;DHT22;52812;48.960;9.108;2022-12-24T01:58:49;10.10;99.90
3086;DHT22;52812;48.960;9.108;2022-12-24T02:01:16;10.00;99.90
3086;DHT22;52812;48.960;9.108;2022-12-24T02:03:42;10.00;99.90
3086;DHT22;52812;48.960;9.108;2022-12-24T02:06:08;9.80;99.90
3086;DHT22;52812;48.960;9.108;2022-12-24T02:08:36;9.90;99.90
3086;DHT22;52812;48.960;9.108;2022-12-24T02:11:17;9.80;99.90
3086;DHT22;52812;48.960;9.108;2022-12-24T02:13:48;9.80;99.90
3086;DHT22;52812;48.960;9.108;2022-12-24T02:19:24;9.90;99.90
3086;DHT22;52812;48.960;9.108;2022-12-24T02:22:01;9.90;99.90
3086;DHT22;52812;48.960;9.108;2022-12-24T02:30:29;10.00;99.90
3086;DHT22;52812;48.960;9.108;2022-12-24T02:33:17;10.00;99.90
3086;DHT22;52812;48.960;9.108;2022-12-24T02:35:51;10.00;99.90
3086;DHT22;52812;48.960;9.108;2022-12-24T02:38:28;10.10;99.90
3086;DHT22;52812;48.960;9.108;2022-12-24T02:41:19;10.10;99.90
3086;DHT22;52812;48.960;9.108;2022-12-24T02:43:45;10.20;99.90
3086;DHT22;52812;48.960;9.108;2022-12-24T02:46:15;10.20;99.90
3086;DHT22;52812;48.960;9.108;2022-12-24T02:48:43;10.10;99.90
3086;DHT22;52812;48.960;9.108;2022-12-24T02:51:10;10.00;99.90
3086;DHT22;52812;48.960;9.108;2022-12-24T02:53:36;9.90;99.90
3086;DHT22;52812;48.960;9.108;2022-12-24T02:56:29;10.00;99.90
3086;DHT22;52812;48.960;9.108;2022-12-24T03:07:18;9.50;99.90
3086;DHT22;52812;48.960;9.108;2022-12-24T03:12:33;9.40;99.90
3086;DHT22;52812;48.960;9.108;2022-12-24T03:15:02;9.40;99.90
3086;DHT22;52812;48.960;9.108;2022-12-24T03:17:29;9.40;99.90
3086;DHT22;52812;48.960;9.108;2022-12-24T03:19:55;9.40;99.90
3086;DHT22;52812;48.960;9.108;2022-12-24T03:22:22;9.40;99.90
3086;DHT22;52812;48.960;9.108;2022-12-24T03:24:49;9.30;99.90
3086;DHT22;52812;48.960;9.108;2022-12-24T03:27:15;9.30;99.90
3086;DHT22;52812;48.960;9.108;2022-12-24T03:29:41;9.20;99.90
3086;DHT22;52812;48.960;9.108;2022-12-24T03:32:07;9.20;99.90
3086;DHT22;52812;48.960;9.108;2022-12-24T03:34:33;9.10;99.90
3086;DHT22;52812;48.960;9.108;2022-12-24T03:36:58;9.00;99.90
3086;DHT22;52812;48.960;9.108;2022-12-24T03:39:24;9.00;99.90
3086;DHT22;52812;48.960;9.108;2022-12-24T03:41:49;9.00;99.90
3086;DHT22;52812;48.960;9.108;2022-12-24T03:44:15;9.00;99.90
3086;DHT22;52812;48.960;9.108;2022-12-24T03:46:41;9.00;99.90
3086;DHT22;52812;48.960;9.108;2022-12-24T03:49:06;9.10;99.90
3086;DHT22;52812;48.960;9.108;2022-12-24T03:51:32;9.10;99.90
3086;DHT22;52812;48.960;9.108;2022-12-24T03:53:58;9.10;99.90
3086;DHT22;52812;48.960;9.108;2022-12-24T03:56:24;9.20;99.90
3086;DHT22;52812;48.960;9.108;2022-12-24T03:58:50;9.10;99.90
3086;DHT22;52812;48.960;9.108;2022-12-24T04:01:16;9.10;99.90
3086;DHT22;52812;48.960;9.108;2022-12-24T04:03:42;9.10;99.90
3086;DHT22;52812;48.960;9.108;2022-12-24T04:06:10;9.10;99.90
3086;DHT22;52812;48.960;9.108;2022-12-24T04:08:36;9.10;99.90
3086;DHT22;52812;48.960;9.108;2022-12-24T04:11:07;9.20;99.90
3086;DHT22;52812;48.960;9.108;2022-12-24T04:13:33;9.20;99.90
3086;DHT22;52812;48.960;9.108;2022-12-24T04:16:00;9.30;99.90
3086;DHT22;52812;48.960;9.108;2022-12-24T04:18:26;9.30;99.90
3086;DHT22;52812;48.960;9.108;2022-12-24T04:20:52;9.30;99.90
3086;DHT22;52812;48.960;9.108;2022-12-24T04:23:18;9.20;99.90
3086;DHT22;52812;48.960;9.108;2022-12-24T04:25:43;9.30;99.90
3086;DHT22;52812;48.960;9.108;2022-12-24T04:28:09;9.30;99.90
3086;DHT22;52812;48.960;9.108;2022-12-24T04:30:36;9.30;99.90
3086;DHT22;52812;48.960;9.108;2022-12-24T04:33:02;9.30;99.90
3086;DHT22;52812;48.960;9.108;2022-12-24T04:35:27;9.30;99.90
3086;DHT22;52812;48.960;9.108;2022-12-24T04:37:53;9.30;99.90
3086;DHT22;52812;48.960;9.108;2022-12-24T04:40:18;9.30;99.90
3086;DHT22;52812;48.960;9.108;2022-12-24T04:42:44;9.30;99.90
3086;DHT22;52812;48.960;9.108;2022-12-24T04:45:10;9.40;99.90
3086;DHT22;52812;48.960;9.108;2022-12-24T04:47:35;9.40;99.90
3086;DHT22;52812;48.960;9.108;2022-12-24T04:50:01;9.50;99.90
3086;DHT22;52812;48.960;9.108;2022-12-24T04:52:27;9.50;99.90
3086;DHT22;52812;48.960;9.108;2022-12-24T04:54:52;9.50;99.90
3086;DHT22;52812;48.960;9.108;2022-12-24T04:57:18;9.50;99.90
3086;DHT22;52812;48.960;9.108;2022-12-24T04:59:43;9.50;99.90
3086;DHT22;52812;48.960;9.108;2022-12-24T05:02:09;9.40;99.90
3086;DHT22;52812;48.960;9.108;2022-12-24T05:04:35;9.40;99.90
3086;DHT22;52812;48.960;9.108;2022-12-24T05:07:00;9.30;99.90
3086;DHT22;52812;48.960;9.108;2022-12-24T05:09:26;9.30;99.90
3086;DHT22;52812;48.960;9.108;2022-12-24T05:11:51;9.30;99.90
3086;DHT22;52812;48.960;9.108;2022-12-24T05:14:17;9.20;99.90
3086;DHT22;52812;48.960;9.108;2022-12-24T05:16:42;9.20;99.90
3086;DHT22;52812;48.960;9.108;2022-12-24T05:19:08;9.20;99.90
3086;DHT22;52812;48.960;9.108;2022-12-24T05:21:34;9.20;99.90
3086;DHT22;52812;48.960;9.108;2022-12-24T05:23:59;9.20;99.90
3086;DHT22;52812;48.960;9.108;2022-12-24T05:29:11;9.10;99.90
3086;DHT22;52812;48.960;9.108;2022-12-24T05:31:37;9.10;99.90
3086;DHT22;52812;48.960;9.108;2022-12-24T05:34:05;9.10;99.90
3086;DHT22;52812;48.960;9.108;2022-12-24T05:36:31;9.00;99.90
3086;DHT22;52812;48.960;9.108;2022-12-24T05:38:57;9.00;99.90
3086;DHT22;52812;48.960;9.108;2022-12-24T05:41:22;8.80;99.90
3086;DHT22;52812;48.960;9.108;2022-12-24T05:43:48;8.90;99.90
3086;DHT22;52812;48.960;9.108;2022-12-24T05:46:16;8.90;99.90
3086;DHT22;52812;48.960;9.108;2022-12-24T05:48:43;8.90;99.90
3086;DHT22;52812;48.960;9.108;2022-12-24T05:51:10;8.90;99.90
3086;DHT22;52812;48.960;9.108;2022-12-24T05:53:37;8.90;99.90
3086;DHT22;52812;48.960;9.108;2022-12-24T05:56:04;8.80;99.90
3086;DHT22;52812;48.960;9.108;2022-12-24T05:58:30;8.80;99.90
3086;DHT22;52812;48.960;9.108;2022-12-24T06:00:56;8.80;99.90
3086;DHT22;52812;48.960;9.108;2022-12-24T06:03:22;8.70;99.90
3086;DHT22;52812;48.960;9.108;2022-12-24T06:05:47;8.70;99.90
3086;DHT22;52812;48.960;9.108;2022-12-24T06:08:13;8.70;99.90
3086;DHT22;52812;48.960;9.108;2022-12-24T06:10:38;8.60;99.90
3086;DHT22;52812;48.960;9.108;2022-12-24T06:13:04;8.50;99.90
3086;DHT22;52812;48.960;9.108;2022-12-24T06:15:29;8.50;99.90
3086;DHT22;52812;48.960;9.108;2022-12-24T06:17:55;8.40;99.90
3086;DHT22;52812;48.960;9.108;2022-12-24T06:20:20;8.40;99.90
3086;DHT22;52812;48.960;9.108;2022-12-24T06:22:46;8.30;99.90
3086;DHT22;52812;48.960;9.108;2022-12-24T06:25:11;8.20;99.90
3086;DHT22;52812;48.960;9.108;2022-12-24T06:27:37;8.30;99.90
3086;DHT22;52812;48.960;9.108;2022-12-24T06:30:03;8.20;99.90
3086;DHT22;52812;48.960;9.108;2022-12-24T06:32:28;8.20;99.90
3086;DHT22;52812;48.960;9.108;2022-12-24T06:34:55;8.20;99.90
3086;DHT22;52812;48.960;9.108;2022-12-24T06:37:20;8.20;99.90
3086;DHT22;52812;48.960;9.108;2022-12-24T06:39:46;8.10;99.90
3086;DHT22;52812;48.960;9.108;2022-12-24T06:42:12;8.10;99.90
3086;DHT22;52812;48.960;9.108;2022-12-24T06:44:38;8.00;99.90
3086;DHT22;52812;48.960;9.108;2022-12-24T06:47:03;8.00;99.90
3086;DHT22;52812;48.960;9.108;2022-12-24T06:49:29;7.90;99.90
3086;DHT22;52812;48.960;9.108;2022-12-24T06:51:54;7.80;99.90
3086;DHT22;52812;48.960;9.108;2022-12-24T06:54:20;7.80;99.90
3086;DHT22;52812;48.960;9.108;2022-12-24T06:56:45;7.80;99.90
3086;DHT22;52812;48.960;9.108;2022-12-24T06:59:11;7.80;99.90
3086;DHT22;52812;48.960;9.108;2022-12-24T07:01:36;7.70;99.90
3086;DHT22;52812;48.960;9.108;2022-12-24T07:04:02;7.70;99.90
3086;DHT22;52812;48.960;9.108;2022-12-24T07:06:29;7.70;99.90
3086;DHT22;52812;48.960;9.108;2022-12-24T07:08:54;7.80;99.90
3086;DHT22;52812;48.960;9.108;2022-12-24T07:11:21;7.80;99.90
3086;DHT22;52812;48.960;9.108;2022-12-24T07:13:47;7.80;99.90
3086;DHT22;52812;48.960;9.108;2022-12-24T07:16:13;7.80;99.90
3086;DHT22;52812;48.960;9.108;2022-12-24T07:18:39;7.90;99.90
3086;DHT22;52812;48.960;9.108;2022-12-24T07:21:05;8.00;99.90
3086;DHT22;52812;48.960;9.108;2022-12-24T07:23:31;8.00;99.90
3086;DHT22;52812;48.960;9.108;2022-12-24T07:26:04;8.10;99.90
3086;DHT22;52812;48.960;9.108;2022-12-24T07:28:30;8.10;99.90
3086;DHT22;52812;48.960;9.108;2022-12-24T07:30:57;8.10;99.90
3086;DHT22;52812;48.960;9.108;2022-12-24T07:33:23;8.10;99.90
3086;DHT22;52812;48.960;9.108;2022-12-24T07:36:06;8.10;99.90
3086;DHT22;52812;48.960;9.108;2022-12-24T07:38:32;8.10;99.90
3086;DHT22;52812;48.960;9.108;2022-12-24T07:40:58;8.10;99.90
3086;DHT22;52812;48.960;9.108;2022-12-24T07:43:25;8.00;99.90
3086;DHT22;52812;48.960;9.108;2022-12-24T07:45:54;7.90;99.90
3086;DHT22;52812;48.960;9.108;2022-12-24T07:48:19;7.90;99.90
3086;DHT22;52812;48.960;9.108;2022-12-24T07:50:48;7.90;99.90
3086;DHT22;52812;48.960;9.108;2022-12-24T07:53:14;7.80;99.90
3086;DHT22;52812;48.960;9.108;2022-12-24T07:55:39;7.80;99.90
3086;DHT22;52812;48.960;9.108;2022-12-24T07:58:05;7.80;99.90
3086;DHT22;52812;48.960;9.108;2022-12-24T08:00:30;7.80;99.90
3086;DHT22;52812;48.960;9.108;2022-12-24T08:02:56;7.80;99.90
3086;DHT22;52812;48.960;9.108;2022-12-24T08:05:24;7.70;99.90
3086;DHT22;52812;48.960;9.108;2022-12-24T08:07:50;7.70;99.90
3086;DHT22;52812;48.960;9.108;2022-12-24T08:10:15;7.70;99.90
3086;DHT22;52812;48.960;9.108;2022-12-24T08:12:41;7.70;99.90
3086;DHT22;52812;48.960;9.108;2022-12-24T08:15:07;7.80;99.90
3086;DHT22;52812;48.960;9.108;2022-12-24T08:17:33;7.80;99.90
3086;DHT22;52812;48.960;9.108;2022-12-24T08:19:58;7.90;99.90
3086;DHT22;52812;48.960;9.108;2022-12-24T08:22:24;7.90;99.90
3086;DHT22;52812;48.960;9.108;2022-12-24T08:24:49;7.90;99.90
3086;DHT22;52812;48.960;9.108;2022-12-24T08:27:15;7.90;99.90
3086;DHT22;52812;48.960;9.108;2022-12-24T08:29:40;8.00;99.90
3086;DHT22;52812;48.960;9.108;2022-12-24T08:32:06;8.00;99.90
3086;DHT22;52812;48.960;9.108;2022-12-24T08:34:31;8.10;99.90
3086;DHT22;52812;48.960;9.108;2022-12-24T08:36:57;8.10;99.90
3086;DHT22;52812;48.960;9.108;2022-12-24T08:39:22;8.10;99.90
3086;DHT22;52812;48.960;9.108;2022-12-24T08:41:49;8.10;99.90
3086;DHT22;52812;48.960;9.108;2022-12-24T08:44:14;8.10;99.90
3086;DHT22;52812;48.960;9.108;2022-12-24T08:46:40;8.10;99.90
3086;DHT22;52812;48.960;9.108;2022-12-24T08:49:05;8.10;99.90
3086;DHT22;52812;48.960;9.108;2022-12-24T08:51:31;8.00;99.90
3086;DHT22;52812;48.960;9.108;2022-12-24T08:53:56;8.00;99.90
3086;DHT22;52812;48.960;9.108;2022-12-24T08:56:22;8.00;99.90
3086;DHT22;52812;48.960;9.108;2022-12-24T08:58:48;8.00;99.90
3086;DHT22;52812;48.960;9.108;2022-12-24T09:01:16;8.00;99.90
3086;DHT22;52812;48.960;9.108;2022-12-24T09:03:42;8.00;99.90
3086;DHT22;52812;48.960;9.108;2022-12-24T09:06:08;8.20;99.90
3086;DHT22;52812;48.960;9.108;2022-12-24T09:08:34;8.30;99.90
3086;DHT22;52812;48.960;9.108;2022-12-24T09:11:11;8.40;99.90
3086;DHT22;52812;48.960;9.108;2022-12-24T09:13:37;8.50;99.90
3086;DHT22;52812;48.960;9.108;2022-12-24T09:16:03;8.60;99.90
3086;DHT22;52812;48.960;9.108;2022-12-24T09:18:29;8.70;99.90
3086;DHT22;52812;48.960;9.108;2022-12-24T09:21:03;8.70;99.90
3086;DHT22;52812;48.960;9.108;2022-12-24T09:23:29;8.80;99.90
3086;DHT22;52812;48.960;9.108;2022-12-24T09:25:55;8.70;99.90
3086;DHT22;52812;48.960;9.108;2022-12-24T09:28:21;8.80;99.90
3086;DHT22;52812;48.960;9.108;2022-12-24T09:31:00;8.80;99.90
3086;DHT22;52812;48.960;9.108;2022-12-24T09:33:28;8.80;99.90
3086;DHT22;52812;48.960;9.108;2022-12-24T09:35:54;8.90;99.90
3086;DHT22;52812;48.960;9.108;2022-12-24T09:38:20;9.00;99.90
3086;DHT22;52812;48.960;9.108;2022-12-24T09:40:46;9.10;99.90
3086;DHT22;52812;48.960;9.108;2022-12-24T09:43:23;9.10;99.90
3086;DHT22;52812;48.960;9.108;2022-12-24T09:48:45;9.40;99.90
3086;DHT22;52812;48.960;9.108;2022-12-24T09:51:28;9.40;99.90
3086;DHT22;52812;48.960;9.108;2022-12-24T09:54:07;9.60;99.90
3086;DHT22;52812;48.960;9.108;2022-12-24T09:56:42;9.80;99.90
3086;DHT22;52812;48.960;9.108;2022-12-24T09:59:14;10.00;99.90
3086;DHT22;52812;48.960;9.108;2022-12-24T10:01:40;10.30;99.90
3086;DHT22;52812;48.960;9.108;2022-12-24T10:04:12;10.50;99.90
3086;DHT22;52812;48.960;9.108;2022-12-24T10:06:54;10.80;99.90
3086;DHT22;52812;48.960;9.108;2022-12-24T10:12:02;11.00;99.90
3086;DHT22;52812;48.960;9.108;2022-12-24T10:26:24;11.10;99.90
3086;DHT22;52812;48.960;9.108;2022-12-24T10:28:54;11.10;99.90
3086;DHT22;52812;48.960;9.108;2022-12-24T10:31:25;11.10;99.90
3086;DHT22;52812;48.960;9.108;2022-12-24T10:33:58;11.00;99.90
3086;DHT22;52812;48.960;9.108;2022-12-24T10:36:27;10.90;99.90
3086;DHT22;52812;48.960;9.108;2022-12-24T10:38:53;10.90;99.90
3086;DHT22;52812;48.960;9.108;2022-12-24T10:41:19;10.80;99.90
3086;DHT22;52812;48.960;9.108;2022-12-24T10:43:45;10.80;99.90
3086;DHT22;52812;48.960;9.108;2022-12-24T10:46:30;10.80;99.90
3086;DHT22;52812;48.960;9.108;2022-12-24T10:49:00;10.70;99.90
3086;DHT22;52812;48.960;9.108;2022-12-24T10:52:09;10.80;99.90
3086;DHT22;52812;48.960;9.108;2022-12-24T10:54:34;10.70;99.90
3086;DHT22;52812;48.960;9.108;2022-12-24T10:57:05;10.70;99.90
3086;DHT22;52812;48.960;9.108;2022-12-24T10:59:42;10.70;99.90
3086;DHT22;52812;48.960;9.108;2022-12-24T11:04:59;10.70;99.90
3086;DHT22;52812;48.960;9.108;2022-12-24T11:07:27;10.70;99.90
3086;DHT22;52812;48.960;9.108;2022-12-24T11:10:04;10.70;99.90
3086;DHT22;52812;48.960;9.108;2022-12-24T11:12:32;10.70;99.90
3086;DHT22;52812;48.960;9.108;2022-12-24T11:15:23;10.80;99.90
3086;DHT22;52812;48.960;9.108;2022-12-24T11:18:00;10.80;99.90
3086;DHT22;52812;48.960;9.108;2022-12-24T11:20:33;10.80;99.90
3086;DHT22;52812;48.960;9.108;2022-12-24T11:23:00;10.80;99.90
3086;DHT22;52812;48.960;9.108;2022-12-24T11:25:27;10.80;99.90
3086;DHT22;52812;48.960;9.108;2022-12-24T11:27:54;10.80;99.90
3086;DHT22;52812;48.960;9.108;2022-12-24T11:30:25;10.70;99.90
3086;DHT22;52812;48.960;9.108;2022-12-24T11:35:27;10.50;99.90
3086;DHT22;52812;48.960;9.108;2022-12-24T11:40:30;10.30;99.90
3086;DHT22;52812;48.960;9.108;2022-12-24T11:42:59;10.30;99.90
3086;DHT22;52812;48.960;9.108;2022-12-24T11:45:27;10.30;99.90
3086;DHT22;52812;48.960;9.108;2022-12-24T11:47:54;10.20;99.90
3086;DHT22;52812;48.960;9.108;2022-12-24T11:50:36;10.20;99.90
3086;DHT22;52812;48.960;9.108;2022-12-24T11:55:49;10.10;99.90
3086;DHT22;52812;48.960;9.108;2022-12-24T12:00:50;10.00;99.90
3086;DHT22;52812;48.960;9.108;2022-12-24T12:03:37;10.00;99.90
3086;DHT22;52812;48.960;9.108;2022-12-24T12:06:42;10.00;99.90
3086;DHT22;52812;48.960;9.108;2022-12-24T12:09:04;10.00;99.90
3086;DHT22;52812;48.960;9.108;2022-12-24T12:11:32;10.00;99.90
3086;DHT22;52812;48.960;9.108;2022-12-24T12:14:00;10.00;99.90
3086;DHT22;52812;48.960;9.108;2022-12-24T12:19:22;9.90;99.90
3086;DHT22;52812;48.960;9.108;2022-12-24T12:21:49;9.90;99.90
3086;DHT22;52812;48.960;9.108;2022-12-24T12:26:56;9.70;99.90
3086;DHT22;52812;48.960;9.108;2022-12-24T12:29:29;9.60;99.90
3086;DHT22;52812;48.960;9.108;2022-12-24T12:32:03;9.60;99.90
3086;DHT22;52812;48.960;9.108;2022-12-24T12:34:31;9.60;99.90
3086;DHT22;52812;48.960;9.108;2022-12-24T12:37:09;9.70;99.90
3086;DHT22;52812;48.960;9.108;2022-12-24T12:39:36;9.90;99.90
3086;DHT22;52812;48.960;9.108;2022-12-24T12:47:55;10.20;99.90
3086;DHT22;52812;48.960;9.108;2022-12-24T12:51:03;10.30;99.90
3086;DHT22;52812;48.960;9.108;2022-12-24T12:59:15;10.50;99.90
3086;DHT22;52812;48.960;9.108;2022-12-24T13:15:31;10.80;99.90
3086;DHT22;52812;48.960;9.108;2022-12-24T13:18:51;10.80;99.90
3086;DHT22;52812;48.960;9.108;2022-12-24T13:20:57;10.80;99.90
3086;DHT22;52812;48.960;9.108;2022-12-24T13:23:25;10.70;99.90
3086;DHT22;52812;48.960;9.108;2022-12-24T13:25:53;10.60;99.90
3086;DHT22;52812;48.960;9.108;2022-12-24T13:30:45;10.30;99.90
3086;DHT22;52812;48.960;9.108;2022-12-24T13:33:12;10.20;99.90
3086;DHT22;52812;48.960;9.108;2022-12-24T13:36:00;10.20;99.90
3086;DHT22;52812;48.960;9.108;2022-12-24T13:40:52;10.10;99.90
3086;DHT22;52812;48.960;9.108;2022-12-24T13:43:17;10.10;99.90
3086;DHT22;52812;48.960;9.108;2022-12-24T13:45:53;10.10;99.90
3086;DHT22;52812;48.960;9.108;2022-12-24T13:48:32;10.00;99.90
3086;DHT22;52812;48.960;9.108;2022-12-24T13:51:18;9.90;99.90
3086;DHT22;52812;48.960;9.108;2022-12-24T13:53:46;9.80;99.90
3086;DHT22;52812;48.960;9.108;2022-12-24T13:58:50;9.80;99.90
3086;DHT22;52812;48.960;9.108;2022-12-24T14:01:33;9.70;99.90
3086;DHT22;52812;48.960;9.108;2022-12-24T14:04:03;9.70;99.90
3086;DHT22;52812;48.960;9.108;2022-12-24T14:06:31;9.70;99.90
3086;DHT22;52812;48.960;9.108;2022-12-24T14:09:07;9.60;99.90
3086;DHT22;52812;48.960;9.108;2022-12-24T14:19:41;9.60;99.90
3086;DHT22;52812;48.960;9.108;2022-12-24T14:24:43;9.60;99.90
3086;DHT22;52812;48.960;9.108;2022-12-24T14:27:23;9.60;99.90
3086;DHT22;52812;48.960;9.108;2022-12-24T14:30:19;9.60;99.90
3086;DHT22;52812;48.960;9.108;2022-12-24T14:32:46;9.50;99.90
3086;DHT22;52812;48.960;9.108;2022-12-24T14:35:23;9.60;99.90
3086;DHT22;52812;48.960;9.108;2022-12-24T14:37:55;9.50;99.90
3086;DHT22;52812;48.960;9.108;2022-12-24T14:40:25;9.50;99.90
3086;DHT22;52812;48.960;9.108;2022-12-24T14:43:13;9.50;99.90
3086;DHT22;52812;48.960;9.108;2022-12-24T14:45:50;9.40;99.90
3086;DHT22;52812;48.960;9.108;2022-12-24T14:48:44;9.40;99.90
3086;DHT22;52812;48.960;9.108;2022-12-24T14:54:09;9.40;99.90
3086;DHT22;52812;48.960;9.108;2022-12-24T14:56:39;9.30;99.90
3086;DHT22;52812;48.960;9.108;2022-12-24T14:59:18;9.20;99.90
3086;DHT22;52812;48.960;9.108;2022-12-24T15:01:45;9.10;99.90
3086;DHT22;52812;48.960;9.108;2022-12-24T15:06:37;8.90;99.90
3086;DHT22;52812;48.960;9.108;2022-12-24T15:09:05;8.90;99.90
3086;DHT22;52812;48.960;9.108;2022-12-24T15:11:31;8.70;99.90
3086;DHT22;52812;48.960;9.108;2022-12-24T15:13:58;8.60;99.90
3086;DHT22;52812;48.960;9.108;2022-12-24T15:16:27;8.50;99.90
3086;DHT22;52812;48.960;9.108;2022-12-24T15:18:56;8.50;99.90
3086;DHT22;52812;48.960;9.108;2022-12-24T15:21:30;8.50;99.90
3086;DHT22;52812;48.960;9.108;2022-12-24T15:23:56;8.40;99.90
3086;DHT22;52812;48.960;9.108;2022-12-24T15:26:25;8.40;99.90
3086;DHT22;52812;48.960;9.108;2022-12-24T15:28:53;8.30;99.90
3086;DHT22;52812;48.960;9.108;2022-12-24T15:31:21;8.20;99.90
3086;DHT22;52812;48.960;9.108;2022-12-24T15:33:49;8.30;99.90
3086;DHT22;52812;48.960;9.108;2022-12-24T15:36:23;8.20;99.90
3086;DHT22;52812;48.960;9.108;2022-12-24T15:38:51;8.30;99.90
3086;DHT22;52812;48.960;9.108;2022-12-24T15:43:46;8.20;99.90
3086;DHT22;52812;48.960;9.108;2022-12-24T15:46:26;8.30;99.90
3086;DHT22;52812;48.960;9.108;2022-12-24T15:48:54;8.40;99.90
3086;DHT22;52812;48.960;9.108;2022-12-24T15:51:33;8.30;99.90
3086;DHT22;52812;48.960;9.108;2022-12-24T15:54:20;8.30;99.90
3086;DHT22;52812;48.960;9.108;2022-12-24T15:56:47;8.30;99.90
3086;DHT22;52812;48.960;9.108;2022-12-24T16:01:45;8.10;99.90
3086;DHT22;52812;48.960;9.108;2022-12-24T16:04:14;8.10;99.90
3086;DHT22;52812;48.960;9.108;2022-12-24T16:07:01;8.10;99.90
3086;DHT22;52812;48.960;9.108;2022-12-24T16:09:43;8.10;99.90
3086;DHT22;52812;48.960;9.108;2022-12-24T16:12:17;8.10;99.90
3086;DHT22;52812;48.960;9.108;2022-12-24T16:14:47;8.10;99.90
3086;DHT22;52812;48.960;9.108;2022-12-24T16:17:23;8.10;99.90
3086;DHT22;52812;48.960;9.108;2022-12-24T16:19:52;8.10;99.90
3086;DHT22;52812;48.960;9.108;2022-12-24T16:22:20;8.10;99.90
3086;DHT22;52812;48.960;9.108;2022-12-24T16:25:23;8.00;99.90
3086;DHT22;52812;48.960;9.108;2022-12-24T16:27:49;8.10;99.90
3086;DHT22;52812;48.960;9.108;2022-12-24T16:30:15;8.10;99.90
3086;DHT22;52812;48.960;9.108;2022-12-24T16:32:41;8.00;99.90
3086;DHT22;52812;48.960;9.108;2022-12-24T16:35:27;8.00;99.90
3086;DHT22;52812;48.960;9.108;2022-12-24T16:37:57;8.00;99.90
3086;DHT22;52812;48.960;9.108;2022-12-24T16:40:23;8.00;99.90
3086;DHT22;52812;48.960;9.108;2022-12-24T16:42:48;8.00;99.90
3086;DHT22;52812;48.960;9.108;2022-12-24T16:45:34;8.00;99.90
3086;DHT22;52812;48.960;9.108;2022-12-24T16:48:01;7.90;99.90
3086;DHT22;52812;48.960;9.108;2022-12-24T16:50:26;7.90;99.90
3086;DHT22;52812;48.960;9.108;2022-12-24T16:52:52;7.80;99.90
3086;DHT22;52812;48.960;9.108;2022-12-24T16:55:18;7.80;99.90
3086;DHT22;52812;48.960;9.108;2022-12-24T16:57:43;7.70;99.90
3086;DHT22;52812;48.960;9.108;2022-12-24T17:00:20;7.70;99.90
3086;DHT22;52812;48.960;9.108;2022-12-24T17:02:47;7.70;99.90
3086;DHT22;52812;48.960;9.108;2022-12-24T17:05:14;7.70;99.90
3086;DHT22;52812;48.960;9.108;2022-12-24T17:07:39;7.60;99.90
3086;DHT22;52812;48.960;9.108;2022-12-24T17:10:08;7.60;99.90
3086;DHT22;52812;48.960;9.108;2022-12-24T17:12:34;7.70;99.90
3086;DHT22;52812;48.960;9.108;2022-12-24T17:15:00;7.70;99.90
3086;DHT22;52812;48.960;9.108;2022-12-24T17:17:27;7.70;99.90
3086;DHT22;52812;48.960;9.108;2022-12-24T17:19:54;7.80;99.90
3086;DHT22;52812;48.960;9.108;2022-12-24T17:22:20;7.80;99.90
3086;DHT22;52812;48.960;9.108;2022-12-24T17:24:46;7.80;99.90
3086;DHT22;52812;48.960;9.108;2022-12-24T17:27:11;7.80;99.90
3086;DHT22;52812;48.960;9.108;2022-12-24T17:29:37;7.80;99.90
3086;DHT22;52812;48.960;9.108;2022-12-24T17:32:03;7.80;99.90
3086;DHT22;52812;48.960;9.108;2022-12-24T17:34:29;7.70;99.90
3086;DHT22;52812;48.960;9.108;2022-12-24T17:36:54;7.70;99.90
3086;DHT22;52812;48.960;9.108;2022-12-24T17:39:20;7.70;99.90
3086;DHT22;52812;48.960;9.108;2022-12-24T17:41:46;7.70;99.90
3086;DHT22;52812;48.960;9.108;2022-12-24T17:44:15;7.60;99.90
3086;DHT22;52812;48.960;9.108;2022-12-24T17:46:40;7.60;99.90
3086;DHT22;52812;48.960;9.108;2022-12-24T17:49:07;7.70;99.90
3086;DHT22;52812;48.960;9.108;2022-12-24T17:51:32;7.70;99.90
3086;DHT22;52812;48.960;9.108;2022-12-24T17:54:01;7.70;99.90
3086;DHT22;52812;48.960;9.108;2022-12-24T17:56:27;7.70;99.90
3086;DHT22;52812;48.960;9.108;2022-12-24T17:58:53;7.80;99.90
3086;DHT22;52812;48.960;9.108;2022-12-24T18:01:21;7.80;99.90